Terminal Aerodrome Forecast
Issued by NWS

Current Version | Previous Version | Graphics & Text | Print | Product List | Glossary On
Versions: 1 2 3 4 5 6 7 8 9 10 11 12 13 14 15 16 17 18 19 20 21 22 23 24 25 26 27 28 29 30 31 32 33 34 35 36 37 38 39
000
FTUS41 KRNK 180541
TAFLWB
TAF
KLWB 180541Z 1806/1906 00000KT P6SM BKN250
     FM181000 00000KT 2SM -SHRA BR FEW025 BKN040
     FM181400 22004KT 6SM -SHRA BR BKN025
     FM181800 22008KT 6SM -SHRA BR BKN015 OVC025
     FM190000 21001KT P6SM SCT050
     FM190500 26001KT 1/4SM FG OVC001=

USA.gov is the U.S. government's official web portal to all federal, state and local government web resources and services.